Time;durP1;ratioP1;P1;durP2;ratioP2;P2;SDS_P1;SDS_P2;PMS_P1;PMS_P2;Temp;Humidity;BMP_temperature;BMP_pressure;BME280_temperature;BME280_humidity;BME280_pressure;Samples;Min_cycle;Max_cycle;Signal;HPM_P1;HPM_P2
2021/06/10 00:00:35;;;;;;;4.55;2.40;;;25.40;43.80;;;;;;4298210;33;20075;-34
2021/06/10 00:03:01;;;;;;;4.07;2.35;;;25.40;44.10;;;;;;4297849;33;20109;-34
2021/06/10 00:05:28;;;;;;;3.20;2.80;;;25.40;44.20;;;;;;4285451;33;20071;-34
2021/06/10 00:07:54;;;;;;;4.45;2.78;;;25.40;44.10;;;;;;4298090;33;20078;-34
2021/06/10 00:10:22;;;;;;;4.78;2.70;;;25.30;44.50;;;;;;4297425;33;20083;-34
2021/06/10 00:12:49;;;;;;;3.92;2.17;;;25.30;44.50;;;;;;4286185;33;20079;-36
2021/06/10 00:15:20;;;;;;;5.62;3.30;;;25.40;44.60;;;;;;4313404;33;20148;-35
2021/06/10 00:17:47;;;;;;;6.43;2.10;;;25.40;44.80;;;;;;4342061;33;20163;-36
2021/06/10 00:20:18;;;;;;;4.18;2.78;;;25.30;44.80;;;;;;4342771;32;20153;-35
2021/06/10 00:22:44;;;;;;;5.62;2.00;;;25.30;44.90;;;;;;4357610;32;20139;-34
2021/06/10 00:25:11;;;;;;;2.53;1.95;;;25.30;44.80;;;;;;4359061;32;20070;-34
2021/06/10 00:27:38;;;;;;;1.80;1.40;;;25.30;44.50;;;;;;4358658;32;20600;-33
2021/06/10 00:30:10;;;;;;;7.60;1.70;;;25.30;44.20;;;;;;4358971;32;20152;-35
2021/06/10 00:32:37;;;;;;;3.28;2.40;;;25.20;44.10;;;;;;4359112;32;20069;-34
2021/06/10 00:35:05;;;;;;;5.95;2.22;;;25.20;44.60;;;;;;4358838;32;20607;-34
2021/06/10 00:37:31;;;;;;;3.53;1.95;;;25.20;44.50;;;;;;4358198;32;20168;-34
2021/06/10 00:39:58;;;;;;;5.12;2.40;;;25.10;44.70;;;;;;4357446;32;20619;-34
2021/06/10 00:42:24;;;;;;;5.22;2.65;;;25.10;44.90;;;;;;4358690;32;20537;-35
2021/06/10 00:44:51;;;;;;;3.00;2.30;;;25.00;45.00;;;;;;4357059;32;20078;-34
2021/06/10 00:47:17;;;;;;;5.90;2.37;;;25.00;45.10;;;;;;4358890;32;20621;-34
2021/06/10 00:49:44;;;;;;;4.05;2.05;;;25.00;45.20;;;;;;4358703;32;20451;-33
2021/06/10 00:52:10;;;;;;;4.87;2.33;;;24.90;45.20;;;;;;4358668;32;20609;-34
2021/06/10 00:54:40;;;;;;;4.53;2.10;;;24.90;45.20;;;;;;4358638;32;20105;-34
2021/06/10 00:57:07;;;;;;;4.22;2.85;;;24.90;45.90;;;;;;4358591;32;20078;-35
2021/06/10 00:59:33;;;;;;;4.87;2.17;;;24.90;45.40;;;;;;4357057;32;20089;-34
2021/06/10 01:02:00;;;;;;;4.03;2.05;;;24.90;45.40;;;;;;4358410;32;20069;-34
2021/06/10 01:04:27;;;;;;;2.95;2.00;;;24.80;45.30;;;;;;4358169;32;20542;-34
2021/06/10 01:07:05;;;;;;;3.47;2.05;;;24.80;45.40;;;;;;4358086;32;20179;-35
2021/06/10 01:09:45;;;;;;;5.72;2.58;;;24.70;45.70;;;;;;4358796;32;20163;-35
2021/06/10 01:12:27;;;;;;;4.45;2.72;;;24.70;45.80;;;;;;4357093;32;20090;-34
2021/06/10 01:15:11;;;;;;;7.35;3.10;;;24.60;46.00;;;;;;4358294;32;20063;-36
2021/06/10 01:17:44;;;;;;;6.57;3.03;;;24.60;46.20;;;;;;4344287;32;20534;-34
2021/06/10 01:20:12;;;;;;;5.45;3.78;;;24.50;46.30;;;;;;4345449;32;20499;-35
2021/06/10 01:22:57;;;;;;;7.25;4.00;;;24.50;46.40;;;;;;4358579;32;20164;-35
2021/06/10 01:25:40;;;;;;;6.47;4.30;;;24.50;46.60;;;;;;4358193;32;20147;-35
2021/06/10 01:28:18;;;;;;;12.50;5.12;;;24.50;46.70;;;;;;4357089;32;20197;-36
2021/06/10 01:30:54;;;;;;;8.73;5.45;;;24.40;46.60;;;;;;4358010;32;20078;-35
2021/06/10 01:33:24;;;;;;;15.57;6.25;;;24.40;46.50;;;;;;4357002;32;20106;-35
2021/06/10 01:36:31;;;;;;;13.38;6.90;;;24.30;46.70;;;;;;4316489;33;20094;-36
2021/06/10 01:39:00;;;;;;;10.68;6.18;;;24.30;46.80;;;;;;4311330;33;20567;-35
2021/06/10 01:41:27;;;;;;;16.52;6.93;;;24.30;46.70;;;;;;4299482;33;20082;-35
2021/06/10 01:43:53;;;;;;;10.70;6.57;;;24.30;46.80;;;;;;4311845;33;20100;-32
2021/06/10 01:46:24;;;;;;;22.42;7.30;;;24.30;47.00;;;;;;4299759;33;20095;-36
2021/06/10 01:48:52;;;;;;;26.75;11.85;;;24.30;47.30;;;;;;4311692;33;20246;-35
2021/06/10 01:51:24;;;;;;;66.53;25.12;;;24.30;47.40;;;;;;4299645;33;20083;-35
2021/06/10 01:53:51;;;;;;;80.75;35.30;;;24.30;47.70;;;;;;4299479;33;20524;-36
2021/06/10 01:56:18;;;;;;;75.32;35.00;;;24.30;47.90;;;;;;4311519;33;20170;-34
2021/06/10 01:58:45;;;;;;;69.10;28.67;;;24.30;47.90;;;;;;4299201;33;20093;-35
2021/06/10 02:01:11;;;;;;;49.38;25.37;;;24.40;47.90;;;;;;4298786;33;20078;-36
2021/06/10 02:03:38;;;;;;;51.97;24.12;;;24.50;48.10;;;;;;4287358;33;20583;-35
2021/06/10 02:06:05;;;;;;;32.80;15.05;;;24.60;47.90;;;;;;4313989;33;20187;-36
2021/06/10 02:08:32;;;;;;;22.10;11.95;;;24.70;47.70;;;;;;4325706;33;20637;-35
2021/06/10 02:10:58;;;;;;;22.83;13.25;;;24.70;47.10;;;;;;4313678;33;20070;-35
2021/06/10 02:13:27;;;;;;;24.15;11.45;;;24.80;46.90;;;;;;4316484;32;20193;-36
2021/06/10 02:16:03;;;;;;;19.40;9.82;;;24.80;46.90;;;;;;4332394;32;20067;-33
2021/06/10 02:18:30;;;;;;;17.23;9.15;;;24.90;47.00;;;;;;4358042;32;20070;-36
2021/06/10 02:21:03;;;;;;;10.10;6.70;;;25.00;46.70;;;;;;4344036;32;20100;-35
2021/06/10 02:23:30;;;;;;;9.10;6.12;;;25.20;46.40;;;;;;4357855;32;20082;-34
2021/06/10 02:25:57;;;;;;;7.30;5.30;;;25.50;46.10;;;;;;4357828;32;20077;-36
2021/06/10 02:28:24;;;;;;;6.03;4.80;;;25.70;45.50;;;;;;4359752;32;20541;-36
2021/06/10 02:30:50;;;;;;;15.30;4.43;;;25.90;44.80;;;;;;4360339;32;20087;-38
2021/06/10 02:33:17;;;;;;;11.15;4.55;;;26.10;44.20;;;;;;4360663;32;20498;-36
2021/06/10 02:35:47;;;;;;;4.20;3.80;;;26.10;43.70;;;;;;4360474;32;20062;-36
2021/06/10 02:38:14;;;;;;;6.62;3.80;;;26.20;43.30;;;;;;4359146;32;20532;-35
2021/06/10 02:40:43;;;;;;;6.97;3.70;;;26.30;43.30;;;;;;4360047;32;20179;-39
2021/06/10 02:43:09;;;;;;;7.22;3.42;;;26.40;43.20;;;;;;4359123;32;20055;-35
2021/06/10 02:45:36;;;;;;;3.12;2.80;;;26.50;43.10;;;;;;4346250;32;20081;-36
2021/06/10 02:48:02;;;;;;;3.58;3.25;;;26.70;42.70;;;;;;4358841;32;20078;-36
2021/06/10 02:50:29;;;;;;;5.68;2.87;;;26.90;42.40;;;;;;4360277;32;20079;-35
2021/06/10 02:52:57;;;;;;;5.30;3.40;;;27.00;42.20;;;;;;4359160;32;20078;-35
2021/06/10 02:55:24;;;;;;;2.92;2.67;;;27.20;41.80;;;;;;4330781;33;20074;-34
2021/06/10 02:57:56;;;;;;;6.57;3.20;;;27.40;41.60;;;;;;4330521;33;20075;-36
2021/06/10 03:00:26;;;;;;;3.12;2.83;;;27.60;41.30;;;;;;4342737;33;20448;-35
2021/06/10 03:02:52;;;;;;;5.60;3.30;;;27.90;41.30;;;;;;4330814;33;20530;-36
2021/06/10 03:05:25;;;;;;;6.00;2.67;;;28.10;40.80;;;;;;4330465;33;20086;-36
2021/06/10 03:07:53;;;;;;;7.10;3.37;;;28.40;40.70;;;;;;4330492;33;20063;-36
2021/06/10 03:10:22;;;;;;;5.30;2.90;;;28.60;40.40;;;;;;4330379;33;20078;-36
2021/06/10 03:12:49;;;;;;;11.93;3.33;;;28.90;40.30;;;;;;4342589;33;20082;-34
2021/06/10 03:15:16;;;;;;;3.80;2.20;;;29.30;39.60;;;;;;4330583;33;20090;-36
2021/06/10 03:17:42;;;;;;;4.82;2.00;;;29.70;38.80;;;;;;4330560;33;20199;-35
2021/06/10 03:20:09;;;;;;;2.03;1.67;;;30.00;37.80;;;;;;4318035;33;20164;-35
2021/06/10 03:22:36;;;;;;;5.05;1.87;;;30.20;37.40;;;;;;4342484;33;20067;-35
2021/06/10 03:25:06;;;;;;;4.82;2.50;;;30.40;36.90;;;;;;4330022;33;20116;-37
2021/06/10 03:27:33;;;;;;;3.55;1.83;;;30.60;36.40;;;;;;4330043;33;20073;-34
2021/06/10 03:30:00;;;;;;;14.98;2.78;;;30.60;36.70;;;;;;4341867;33;20068;-34
2021/06/10 03:32:27;;;;;;;3.95;1.95;;;30.70;36.50;;;;;;4348236;32;20526;-34
2021/06/10 03:34:57;;;;;;;2.53;1.25;;;30.80;35.80;;;;;;4358321;32;20078;-36
2021/06/10 03:37:24;;;;;;;3.55;2.22;;;30.80;35.90;;;;;;4358084;32;20078;-34
2021/06/10 03:39:53;;;;;;;8.07;1.55;;;30.70;35.60;;;;;;4357593;32;20526;-35
2021/06/10 03:42:20;;;;;;;7.43;2.55;;;30.70;35.70;;;;;;4357626;32;20186;-36
2021/06/10 03:44:47;;;;;;;10.05;3.10;;;30.70;36.10;;;;;;4357802;32;20059;-40
2021/06/10 03:47:17;;;;;;;6.68;2.72;;;30.60;36.40;;;;;;4345656;32;20139;-35
2021/06/10 03:49:44;;;;;;;3.28;1.27;;;30.60;36.60;;;;;;4345437;32;20081;-34
2021/06/10 03:52:10;;;;;;;9.10;3.67;;;30.50;36.50;;;;;;4359356;32;20074;-33
2021/06/10 03:54:37;;;;;;;7.40;3.95;;;30.40;36.40;;;;;;4359297;32;20077;-35
2021/06/10 03:57:04;;;;;;;9.52;4.00;;;30.30;36.70;;;;;;4358984;32;20669;-34
2021/06/10 03:59:30;;;;;;;8.90;3.92;;;30.20;36.80;;;;;;4358927;32;20104;-33
2021/06/10 04:01:57;;;;;;;8.82;4.62;;;30.20;37.10;;;;;;4359200;32;20090;-36
2021/06/10 04:04:24;;;;;;;12.10;6.28;;;30.30;37.00;;;;;;4358740;32;20066;-36
2021/06/10 04:06:52;;;;;;;11.95;6.43;;;30.50;36.40;;;;;;4359275;32;20081;-36
2021/06/10 04:09:19;;;;;;;12.00;7.12;;;30.80;35.90;;;;;;4357367;32;20067;-36
2021/06/10 04:11:46;;;;;;;11.63;7.45;;;31.00;35.50;;;;;;4358909;32;20086;-35
2021/06/10 04:14:12;;;;;;;24.23;9.38;;;31.20;35.00;;;;;;4358847;32;20173;-34
2021/06/10 04:16:38;;;;;;;17.25;8.52;;;31.40;34.90;;;;;;4357160;32;20490;-34
2021/06/10 04:19:05;;;;;;;7.40;4.43;;;31.50;34.80;;;;;;4358598;32;20063;-34
2021/06/10 04:21:31;;;;;;;8.98;3.95;;;31.30;35.80;;;;;;4358674;32;20591;-33
2021/06/10 04:23:58;;;;;;;8.93;3.92;;;31.30;36.80;;;;;;4359194;32;20055;-35
2021/06/10 04:26:24;;;;;;;6.68;3.42;;;31.20;37.20;;;;;;4358800;32;20144;-34
2021/06/10 04:28:51;;;;;;;6.85;2.20;;;31.10;37.40;;;;;;4358804;32;20082;-35
2021/06/10 04:31:18;;;;;;;9.30;3.45;;;31.00;37.60;;;;;;4357348;32;20157;-36
2021/06/10 04:33:45;;;;;;;9.80;5.90;;;31.00;37.70;;;;;;4358378;32;20101;-36
2021/06/10 04:36:11;;;;;;;6.10;3.40;;;31.10;37.50;;;;;;4358897;32;20084;-35
2021/06/10 04:38:38;;;;;;;3.25;2.47;;;31.30;37.30;;;;;;4326029;33;20075;-35
2021/06/10 04:41:05;;;;;;;9.88;2.95;;;31.60;36.70;;;;;;4314048;33;20070;-35
2021/06/10 04:43:32;;;;;;;8.10;2.90;;;31.70;36.50;;;;;;4326557;33;20098;-36
2021/06/10 04:45:58;;;;;;;6.80;2.47;;;31.80;36.40;;;;;;4326620;33;20162;-34
2021/06/10 04:48:25;;;;;;;6.53;2.67;;;31.80;36.40;;;;;;4326084;33;20546;-35
2021/06/10 04:50:52;;;;;;;5.55;3.17;;;31.70;37.10;;;;;;4325877;33;20181;-35
2021/06/10 04:53:19;;;;;;;9.25;4.50;;;31.80;37.00;;;;;;4326287;33;20156;-37
2021/06/10 04:55:46;;;;;;;10.40;5.78;;;32.00;37.50;;;;;;4326118;33;20452;-41
2021/06/10 04:58:13;;;;;;;4.40;3.90;;;32.30;37.60;;;;;;4326630;33;20642;-35
2021/06/10 05:00:39;;;;;;;9.35;4.20;;;32.70;37.10;;;;;;4326176;33;20087;-35
2021/06/10 05:03:07;;;;;;;9.57;4.55;;;33.10;36.90;;;;;;4326074;33;20063;-35
2021/06/10 05:05:34;;;;;;;8.27;4.57;;;33.50;36.10;;;;;;4326195;33;20067;-35
2021/06/10 05:08:00;;;;;;;10.98;5.40;;;33.90;35.30;;;;;;4326329;33;20086;-33
2021/06/10 05:10:27;;;;;;;13.62;5.43;;;34.20;35.30;;;;;;4352762;32;20127;-34
2021/06/10 05:12:53;;;;;;;6.28;3.87;;;34.40;35.00;;;;;;4358217;32;20074;-34
2021/06/10 05:15:20;;;;;;;17.15;5.43;;;34.50;34.50;;;;;;4357930;32;20069;-34
2021/06/10 05:17:46;;;;;;;8.95;6.40;;;34.60;34.40;;;;;;4357973;32;20150;-36
2021/06/10 05:20:14;;;;;;;10.73;6.53;;;34.60;34.40;;;;;;4358447;32;20590;-33
2021/06/10 05:22:41;;;;;;;18.52;8.02;;;34.60;34.40;;;;;;4344558;32;20099;-36
2021/06/10 05:25:08;;;;;;;10.35;7.47;;;34.50;34.50;;;;;;4358303;32;20544;-33
2021/06/10 05:27:35;;;;;;;12.88;7.15;;;34.50;34.40;;;;;;4358471;32;20166;-35
2021/06/10 05:30:06;;;;;;;6.85;3.65;;;34.40;34.70;;;;;;4357721;32;20617;-35
2021/06/10 05:32:32;;;;;;;8.52;3.55;;;34.30;34.20;;;;;;4358385;32;20074;-35
2021/06/10 05:34:59;;;;;;;7.18;5.47;;;34.10;34.10;;;;;;4343981;32;20071;-34
2021/06/10 05:37:25;;;;;;;10.48;5.25;;;34.00;34.70;;;;;;4357733;32;20630;-34
2021/06/10 05:39:52;;;;;;;5.68;3.95;;;33.90;34.60;;;;;;4356486;32;20133;-34
2021/06/10 05:42:18;;;;;;;5.55;4.30;;;33.90;34.50;;;;;;4357875;32;20073;-34
2021/06/10 05:44:45;;;;;;;4.80;3.97;;;33.70;34.50;;;;;;4357715;32;20096;-34
2021/06/10 05:47:12;;;;;;;6.72;3.92;;;33.60;34.80;;;;;;4358219;32;20097;-35
2021/06/10 05:49:41;;;;;;;6.05;3.90;;;33.40;34.60;;;;;;4356628;32;20077;-34
2021/06/10 05:52:08;;;;;;;8.98;4.22;;;33.20;34.60;;;;;;4357670;32;20142;-33
2021/06/10 05:54:34;;;;;;;4.75;4.30;;;33.10;34.70;;;;;;4358300;32;20067;-35
2021/06/10 05:57:01;;;;;;;7.32;4.20;;;32.90;34.60;;;;;;4356404;32;20082;-35
2021/06/10 10:04:22;;;;;;;3.75;3.15;;;27.50;41.30;;;;;;3872249;37;20167;-40
2021/06/10 10:06:48;;;;;;;8.82;3.67;;;32.10;35.90;;;;;;4428314;32;20156;-39
2021/06/10 10:09:15;;;;;;;2.08;1.20;;;32.40;34.60;;;;;;4415856;32;20572;-40
2021/06/10 10:11:41;;;;;;;1.77;1.17;;;32.80;34.30;;;;;;4403060;32;20072;-39
2021/06/10 10:14:08;;;;;;;2.65;2.45;;;32.90;31.90;;;;;;4429169;32;20077;-38
2021/06/10 10:16:37;;;;;;;4.37;2.42;;;33.00;32.40;;;;;;4415883;32;20077;-38
2021/06/10 10:19:04;;;;;;;2.50;2.05;;;33.10;32.00;;;;;;4428509;32;20093;-38
2021/06/10 10:21:33;;;;;;;1.70;1.60;;;33.20;31.10;;;;;;4428954;32;20064;-39
2021/06/10 10:24:07;;;;;;;3.00;2.80;;;33.20;30.40;;;;;;4429544;32;20065;-38
2021/06/10 10:26:33;;;;;;;3.28;2.67;;;33.30;31.40;;;;;;4428636;32;20064;-36
2021/06/10 10:29:01;;;;;;;7.78;2.97;;;33.40;31.10;;;;;;4428576;32;20142;-39
2021/06/10 10:31:29;;;;;;;0.90;0.60;;;33.60;31.60;;;;;;4428683;32;20508;-39
2021/06/10 10:33:55;;;;;;;4.62;1.55;;;33.90;29.50;;;;;;4428950;32;20092;-40
2021/06/10 10:36:43;;;;;;;1.90;1.70;;;34.30;29.90;;;;;;4428361;32;20180;-40
2021/06/10 10:39:10;;;;;;;6.15;1.90;;;34.90;29.80;;;;;;4430499;32;20515;-39
2021/06/10 10:41:55;;;;;;;7.97;1.50;;;35.30;29.50;;;;;;4430338;32;20159;-40
2021/06/10 10:44:27;;;;;;;4.20;2.37;;;35.70;29.30;;;;;;4430793;32;20152;-40
2021/06/10 10:47:00;;;;;;;4.62;2.25;;;35.90;28.70;;;;;;4416339;32;20131;-40
2021/06/10 10:49:29;;;;;;;5.07;1.87;;;36.20;28.50;;;;;;4417036;32;20069;-39
2021/06/10 10:52:16;;;;;;;2.83;1.95;;;36.40;28.40;;;;;;4414839;32;20077;-39
2021/06/10 10:54:45;;;;;;;3.28;1.70;;;36.50;28.00;;;;;;4409510;32;20069;-39
2021/06/10 10:57:36;;;;;;;3.40;2.33;;;36.50;28.00;;;;;;4398997;32;20053;-39
2021/06/10 11:00:09;;;;;;;2.42;1.40;;;36.40;27.80;;;;;;4400225;32;20519;-39
2021/06/10 11:02:46;;;;;;;1.55;1.05;;;36.20;27.80;;;;;;4366849;32;20116;-38
2021/06/10 11:05:29;;;;;;;2.00;1.20;;;36.10;27.90;;;;;;4346822;32;20506;-39
2021/06/10 11:07:55;;;;;;;1.23;1.00;;;36.20;27.70;;;;;;4346394;32;20500;-38
2021/06/10 11:10:37;;;;;;;1.87;1.00;;;36.40;27.80;;;;;;4357615;32;20078;-39
2021/06/10 11:13:26;;;;;;;5.20;1.08;;;36.80;28.20;;;;;;4357707;32;20220;-39
2021/06/10 11:16:02;;;;;;;3.95;1.80;;;36.90;27.00;;;;;;4357169;32;20177;-39
2021/06/10 11:18:52;;;;;;;2.20;1.00;;;36.80;27.40;;;;;;4357088;32;20100;-39
2021/06/10 11:21:40;;;;;;;3.08;2.45;;;36.70;28.20;;;;;;4357625;32;20115;-38
2021/06/10 11:24:14;;;;;;;2.92;2.72;;;36.90;28.30;;;;;;4357092;32;20159;-38
2021/06/10 11:27:00;;;;;;;;;;;37.10;28.70;;;;;;4329804;32;20177;-39
2021/06/10 11:29:28;;;;;;;2.00;1.87;;;37.40;28.80;;;;;;4342166;32;19993;-39
2021/06/10 11:32:20;;;;;;;5.57;2.30;;;37.70;28.10;;;;;;4341735;32;20090;-39
2021/06/10 11:34:55;;;;;;;3.35;2.20;;;38.10;28.10;;;;;;4385909;32;20062;-39
2021/06/10 11:37:26;;;;;;;4.28;2.20;;;38.40;27.70;;;;;;4374400;32;20485;-41
2021/06/10 11:39:53;;;;;;;4.30;2.30;;;38.60;27.70;;;;;;4386974;32;20062;-38
2021/06/10 11:42:23;;;;;;;4.47;2.12;;;38.50;27.80;;;;;;4356460;32;20062;-40
2021/06/10 11:44:51;;;;;;;4.00;2.95;;;38.50;27.30;;;;;;4356722;32;20070;-37
2021/06/10 11:47:25;;;;;;;5.78;2.20;;;38.20;27.10;;;;;;4356899;32;20075;-38
2021/06/10 11:49:52;;;;;;;6.40;2.40;;;37.90;28.10;;;;;;4327847;33;20150;-38
2021/06/10 11:52:19;;;;;;;2.50;2.30;;;37.60;28.20;;;;;;4315894;33;20515;-39
2021/06/10 11:55:09;;;;;;;3.12;1.58;;;37.50;28.30;;;;;;4327759;33;20470;-38
2021/06/10 11:57:35;;;;;;;2.10;1.35;;;37.50;28.60;;;;;;4315564;33;20159;-38
2021/06/10 12:00:09;;;;;;;3.92;1.40;;;37.80;28.10;;;;;;4314736;33;20191;-39
2021/06/10 12:02:40;;;;;;;19.00;4.87;;;38.20;27.60;;;;;;4326861;33;20082;-39
2021/06/10 12:05:15;;;;;;;1.33;1.23;;;38.60;27.50;;;;;;4327966;33;20067;-38
2021/06/10 12:07:41;;;;;;;3.50;1.20;;;39.00;27.30;;;;;;4329737;33;20558;-38
2021/06/10 12:10:14;;;;;;;3.25;0.70;;;39.30;27.40;;;;;;4317768;33;20133;-38
2021/06/10 12:12:44;;;;;;;2.83;0.80;;;39.60;26.70;;;;;;4318043;33;20149;-38
2021/06/10 12:15:29;;;;;;;2.40;1.00;;;39.80;26.30;;;;;;4341172;33;20094;-39
2021/06/10 12:18:02;;;;;;;2.08;0.70;;;40.00;26.10;;;;;;4341422;33;20632;-39
2021/06/10 12:20:31;;;;;;;1.55;0.75;;;40.10;26.20;;;;;;4378626;32;21160;-38
2021/06/10 12:22:58;;;;;;;1.98;1.00;;;40.10;26.30;;;;;;4341242;33;20100;-39
2021/06/10 12:25:30;;;;;;;1.35;0.82;;;40.30;26.30;;;;;;4341304;33;20094;-39
2021/06/10 12:27:58;;;;;;;2.33;0.60;;;40.40;26.20;;;;;;4317538;33;20087;-38
2021/06/10 12:30:32;;;;;;;1.30;0.65;;;40.60;26.40;;;;;;4329372;33;20074;-39
2021/06/10 12:33:20;;;;;;;;;;;40.60;25.90;;;;;;4329715;33;20098;-39
2021/06/10 12:35:49;;;;;;;2.05;0.70;;;40.60;26.20;;;;;;4341396;33;19990;-38
2021/06/10 12:38:18;;;;;;;1.98;0.60;;;40.50;26.00;;;;;;4328976;33;20152;-39
2021/06/10 12:40:47;;;;;;;2.30;0.68;;;40.40;26.30;;;;;;4328959;33;20129;-39
2021/06/10 12:43:19;;;;;;;0.80;0.70;;;40.00;25.80;;;;;;4340498;33;20492;-38
2021/06/10 12:45:46;;;;;;;6.62;0.65;;;39.60;26.00;;;;;;4329140;33;20077;-38
2021/06/10 12:48:27;;;;;;;0.77;0.60;;;39.30;25.90;;;;;;4346988;32;20088;-39
2021/06/10 12:51:23;;;;;;;3.08;0.73;;;39.10;25.90;;;;;;4332514;32;20073;-40
2021/06/10 12:54:15;;;;;;;1.87;0.60;;;39.00;25.80;;;;;;4355900;32;20070;-40
2021/06/10 12:57:19;;;;;;;1.83;0.60;;;39.00;25.90;;;;;;4343989;32;20552;-39
2021/06/10 12:59:53;;;;;;;0.80;0.60;;;38.80;26.20;;;;;;4362939;32;20170;-39
2021/06/10 13:02:24;;;;;;;0.40;0.40;;;38.30;26.10;;;;;;4388294;32;20069;-38
2021/06/10 13:05:02;;;;;;;2.53;1.30;;;37.60;26.50;;;;;;4388294;32;20148;-39
2021/06/10 13:07:32;;;;;;;1.85;1.40;;;37.10;27.20;;;;;;4374073;32;20162;-38
2021/06/10 13:10:01;;;;;;;0.70;0.62;;;36.70;27.70;;;;;;4340156;33;20285;-39
2021/06/10 13:12:29;;;;;;;1.27;0.73;;;36.60;27.50;;;;;;4340951;33;20070;-40
2021/06/10 13:15:11;;;;;;;2.97;0.90;;;36.30;27.40;;;;;;4340470;33;20245;-38
2021/06/10 13:18:19;;;;;;;3.03;1.10;;;36.10;28.60;;;;;;4328670;33;20089;-38
2021/06/10 13:20:56;;;;;;;7.55;1.10;;;36.20;28.30;;;;;;4282233;33;20225;-37
2021/06/10 13:23:48;;;;;;;1.77;1.33;;;36.40;28.00;;;;;;4270706;33;20064;-38
2021/06/10 13:26:21;;;;;;;4.53;1.92;;;36.50;28.10;;;;;;4278392;33;20563;-37
2021/06/10 13:29:02;;;;;;;1.60;0.88;;;36.50;28.00;;;;;;4281540;33;20112;-38
2021/06/10 13:32:19;;;;;;;2.25;0.90;;;36.40;28.50;;;;;;4281694;33;20088;-38
2021/06/10 13:35:14;;;;;;;1.50;0.65;;;36.40;29.10;;;;;;4275455;33;20101;-39
2021/06/10 13:37:40;;;;;;;10.88;1.75;;;35.90;28.80;;;;;;4282145;33;20726;-39
2021/06/10 13:40:07;;;;;;;2.12;0.75;;;35.70;29.30;;;;;;4285974;33;20153;-38
2021/06/10 13:42:34;;;;;;;1.30;0.82;;;35.40;29.50;;;;;;4310636;33;20201;-39
2021/06/10 13:45:00;;;;;;;1.00;0.60;;;35.10;29.90;;;;;;4310793;33;20070;-38
2021/06/10 13:47:27;;;;;;;1.85;0.90;;;34.60;30.20;;;;;;4311573;33;20518;-38
2021/06/10 13:49:54;;;;;;;14.65;1.33;;;34.20;31.10;;;;;;4313212;33;20067;-39
2021/06/10 13:52:20;;;;;;;1.25;0.80;;;34.20;32.00;;;;;;4325673;33;20548;-37
2021/06/10 13:54:47;;;;;;;1.95;0.60;;;34.00;31.90;;;;;;4325758;33;20063;-38
2021/06/10 13:57:13;;;;;;;1.52;0.70;;;33.60;31.60;;;;;;4354396;32;20131;-38
2021/06/10 13:59:40;;;;;;;5.00;1.05;;;33.40;31.50;;;;;;4387589;32;20107;-38
2021/06/10 14:02:06;;;;;;;0.70;0.60;;;33.20;31.50;;;;;;4373239;32;20077;-39
2021/06/10 14:04:33;;;;;;;3.75;0.90;;;33.20;31.70;;;;;;4373346;32;20050;-38
2021/06/10 14:07:00;;;;;;;0.93;0.75;;;33.10;31.80;;;;;;4387337;32;20074;-38
2021/06/10 14:09:27;;;;;;;1.52;0.65;;;32.90;31.90;;;;;;4387819;32;20046;-38
2021/06/10 14:11:54;;;;;;;2.08;0.70;;;32.70;32.50;;;;;;4373950;32;20066;-38
2021/06/10 14:14:20;;;;;;;4.65;0.95;;;32.60;32.90;;;;;;4373650;32;20066;-38
2021/06/10 14:16:47;;;;;;;1.83;0.70;;;32.70;33.40;;;;;;4387219;32;20062;-36
2021/06/10 14:19:18;;;;;;;2.37;0.80;;;32.80;33.10;;;;;;4387423;32;20088;-39
2021/06/10 14:21:45;;;;;;;5.72;0.93;;;32.90;33.40;;;;;;4387777;32;20545;-39
2021/06/10 14:24:11;;;;;;;1.62;1.00;;;32.90;33.20;;;;;;4373868;32;20074;-38
2021/06/10 14:26:38;;;;;;;1.27;0.70;;;32.80;33.40;;;;;;4373343;32;20609;-39
2021/06/10 14:29:12;;;;;;;0.52;0.30;;;32.50;33.50;;;;;;4387261;32;20500;-39
2021/06/10 14:34:18;;;;;;;3.12;0.90;;;32.20;33.90;;;;;;4387031;32;20078;-38
2021/06/10 14:36:49;;;;;;;2.70;0.43;;;32.10;34.30;;;;;;4373791;32;20529;-39
2021/06/10 14:39:15;;;;;;;1.10;1.00;;;32.00;34.00;;;;;;4363348;32;20073;-38
2021/06/10 14:41:42;;;;;;;1.05;0.93;;;31.90;34.20;;;;;;4390285;32;20521;-39
2021/06/10 14:44:08;;;;;;;0.50;0.50;;;31.80;34.30;;;;;;4376169;32;20094;-38
2021/06/10 14:46:35;;;;;;;0.75;0.37;;;31.90;34.60;;;;;;4389874;32;20073;-38
2021/06/10 14:49:03;;;;;;;1.33;1.17;;;31.90;34.40;;;;;;4400915;32;20153;-38
2021/06/10 14:51:30;;;;;;;3.30;0.88;;;31.90;34.60;;;;;;4405371;32;20161;-39
2021/06/10 14:53:57;;;;;;;1.70;0.60;;;31.90;34.60;;;;;;4391150;32;20176;-38
2021/06/10 14:56:23;;;;;;;0.40;0.30;;;31.80;34.20;;;;;;4404981;32;20073;-38
2021/06/10 14:58:50;;;;;;;0.82;0.60;;;31.70;34.10;;;;;;4405017;32;20070;-38
2021/06/10 15:01:17;;;;;;;1.75;0.52;;;31.60;34.00;;;;;;4404879;32;20560;-39
2021/06/10 15:03:43;;;;;;;1.10;0.80;;;31.50;34.20;;;;;;4405306;32;20070;-39
2021/06/10 15:06:10;;;;;;;1.70;0.75;;;31.50;34.50;;;;;;4391256;32;20122;-39
2021/06/10 15:08:36;;;;;;;1.98;0.70;;;31.60;34.70;;;;;;4405422;32;20080;-40
2021/06/10 15:11:03;;;;;;;5.65;0.50;;;31.50;34.40;;;;;;4390573;32;20053;-38
2021/06/10 15:13:31;;;;;;;2.53;1.00;;;31.30;34.40;;;;;;4404907;32;20073;-39
2021/06/10 15:15:58;;;;;;;0.50;0.45;;;31.20;34.80;;;;;;4404739;32;20553;-39
2021/06/10 15:18:24;;;;;;;0.40;0.40;;;31.10;34.80;;;;;;4404642;32;20152;-38
2021/06/10 15:20:51;;;;;;;1.75;0.65;;;31.00;34.90;;;;;;4404762;32;20085;-38
2021/06/10 15:23:17;;;;;;;1.52;0.80;;;31.00;35.00;;;;;;4404808;32;20576;-38
2021/06/10 15:25:44;;;;;;;2.85;0.70;;;31.00;35.10;;;;;;4404797;32;20068;-38
2021/06/10 15:28:10;;;;;;;0.93;0.57;;;30.90;35.40;;;;;;4390541;32;20105;-39
2021/06/10 15:30:37;;;;;;;1.90;0.70;;;31.00;35.40;;;;;;4404316;32;20083;-38
2021/06/10 15:33:03;;;;;;;0.30;0.30;;;30.80;35.40;;;;;;4390925;32;20097;-39
2021/06/10 15:35:30;;;;;;;1.20;0.40;;;30.70;35.70;;;;;;4404339;32;20627;-38
2021/06/10 15:37:56;;;;;;;0.40;0.40;;;30.40;36.00;;;;;;4404524;32;20065;-38
2021/06/10 15:40:23;;;;;;;2.72;0.70;;;30.20;36.40;;;;;;4404330;32;20050;-38
2021/06/10 15:42:49;;;;;;;0.37;0.30;;;30.10;36.90;;;;;;4404636;32;20065;-38
2021/06/10 15:45:16;;;;;;;1.33;0.98;;;30.10;36.90;;;;;;4404403;32;20080;-38
2021/06/10 15:47:42;;;;;;;1.08;0.73;;;29.90;37.30;;;;;;4401380;32;20108;-38
2021/06/10 15:50:09;;;;;;;1.95;0.90;;;29.80;37.50;;;;;;4389205;32;20050;-38
2021/06/10 15:52:36;;;;;;;8.65;1.00;;;29.80;37.70;;;;;;4389130;32;20053;-38
2021/06/10 15:55:03;;;;;;;0.50;0.47;;;29.70;37.70;;;;;;4389161;32;20065;-38
2021/06/10 15:57:30;;;;;;;1.40;0.80;;;29.60;37.90;;;;;;4389043;32;20465;-38
2021/06/10 15:59:57;;;;;;;1.60;0.60;;;29.40;38.10;;;;;;4389437;32;20092;-39
2021/06/10 16:02:24;;;;;;;4.30;0.70;;;29.20;38.30;;;;;;4389227;32;20074;-36
2021/06/10 16:04:52;;;;;;;3.58;1.02;;;29.20;38.50;;;;;;4389288;32;20074;-38
2021/06/10 16:07:19;;;;;;;3.03;0.93;;;29.10;39.00;;;;;;4389498;32;20509;-39
2021/06/10 16:09:45;;;;;;;2.15;0.85;;;28.80;38.90;;;;;;4388856;32;20085;-39
2021/06/10 16:12:14;;;;;;;3.92;0.95;;;28.70;39.10;;;;;;4387234;32;20692;-39
2021/06/10 16:14:41;;;;;;;3.15;0.80;;;28.60;39.20;;;;;;4389284;32;20072;-38
2021/06/10 16:17:08;;;;;;;1.92;0.88;;;28.60;39.30;;;;;;4388852;32;20509;-38
2021/06/10 16:19:34;;;;;;;2.85;0.90;;;28.60;39.40;;;;;;4388782;32;20057;-38
2021/06/10 16:22:01;;;;;;;1.20;0.82;;;28.50;39.40;;;;;;4355969;32;20106;-39
2021/06/10 16:24:28;;;;;;;1.70;0.50;;;28.40;39.50;;;;;;4356450;32;20757;-39
2021/06/10 16:26:55;;;;;;;1.23;0.80;;;28.30;39.40;;;;;;4355870;32;20148;-37
2021/06/10 16:29:21;;;;;;;1.37;0.80;;;28.20;39.50;;;;;;4344048;32;20138;-38
2021/06/10 16:31:48;;;;;;;4.07;1.62;;;28.10;39.60;;;;;;4356346;32;20050;-39
2021/06/10 16:34:14;;;;;;;2.35;1.08;;;28.00;39.80;;;;;;4355728;32;20175;-37
2021/06/10 16:36:44;;;;;;;1.90;0.93;;;28.00;39.80;;;;;;4355684;32;20061;-39
2021/06/10 16:39:10;;;;;;;1.75;0.80;;;28.00;39.90;;;;;;4355594;32;20071;-39
2021/06/10 16:41:38;;;;;;;1.48;1.08;;;28.00;39.90;;;;;;4356161;32;20112;-37
2021/06/10 16:44:04;;;;;;;4.53;1.00;;;27.90;40.00;;;;;;4356052;32;20055;-37
2021/06/10 16:46:31;;;;;;;4.32;0.90;;;27.90;40.20;;;;;;4356076;32;20590;-36
2021/06/10 16:48:57;;;;;;;1.73;0.90;;;27.80;40.30;;;;;;4355856;32;20085;-38
2021/06/10 16:51:24;;;;;;;2.62;1.23;;;27.80;40.40;;;;;;4355754;32;20607;-39
2021/06/10 16:53:50;;;;;;;8.52;1.67;;;27.80;40.70;;;;;;4356504;32;20074;-38
2021/06/10 16:56:17;;;;;;;4.53;1.70;;;27.80;41.60;;;;;;4355767;32;20070;-39
2021/06/10 16:58:45;;;;;;;2.17;1.08;;;27.80;41.50;;;;;;4362035;32;20069;-39
2021/06/10 17:01:18;;;;;;;3.50;1.50;;;27.80;41.70;;;;;;4387886;32;20064;-40
2021/06/10 17:04:04;;;;;;;2.83;1.20;;;27.70;41.80;;;;;;4387577;32;20069;-38
2021/06/10 17:06:48;;;;;;;3.15;1.27;;;27.60;42.00;;;;;;4376143;32;20166;-39